Flight Information

DEPARTURE
INDIAN SPRINGS, NV
Elevation:
3134
Runways:
8/26 - 9002x150 - ASPH
13/31 - 5476x100 - ASPH
Ground:
118.3
Tower:
118.3
DESTINATION
,
Elevation:
TPA:
1000 (est.)


6621.4 NM74° True-15° Var59° HDG

Flight Plan:
(click to file on line)

1. Type
2. Aircraft Identification
3. Aircraft Type / Special Equipment
4. True Airspeed
kts
5. Departure Airport
(ICAO code)
6. Arriving Airport
(ICAO code)
7. Cruising Altitude
ft
8. Alternate Airport
(ICAO code)
9. Route of Flight
10. Remarks


00:00:00 Departure ATIS: Destination ATIS:

Clearance Limit:
Route:
Altitude: Expect in minutes
Frequency:
Transponder: (7500 Hijack / 7600 Lost Comms / 7700 Emergency)


KINS 010758Z AUTO 27005KT 10SM CLR 12/03 A2983 RMK AO2 SLP072 T01150025 402250050 $
Time: 2020-04-01T07:58:00Z
1585728537
Winds: 270 @ 5 kts
Visibility: 10.0 sm
Clouds (AGL): CLR
Temperature: 11.5 C
Dew Point: 2.5 C
Pressure: 29.828741 in Hgbr


Notes:

Data extracted from FAA Digital Chart Supplement. Effective: 0901Z Thursday, Mar 26, 2020 to 0901Z Thursday, May 21, 2020
Current ATIS data is provided courtisy of PilotEdge.